createdAt,value
2018-04-30T00:00:41.532Z,0
2018-04-30T00:01:41.273Z,0
2018-04-30T00:02:41.774Z,0
2018-04-30T00:03:41.776Z,0
2018-04-30T00:04:41.529Z,0
2018-04-30T00:05:41.509Z,0
2018-04-30T00:06:41.761Z,0
2018-04-30T00:07:41.240Z,0
2018-04-30T00:08:41.495Z,0
2018-04-30T00:09:41.743Z,0
2018-04-30T00:10:41.754Z,0
2018-04-30T00:11:41.734Z,0
2018-04-30T00:12:41.515Z,0
2018-04-30T00:13:41.727Z,0
2018-04-30T00:14:41.731Z,0
2018-04-30T00:15:41.456Z,0
2018-04-30T00:16:41.706Z,0
2018-04-30T00:17:41.699Z,0
2018-04-30T00:18:41.709Z,0
2018-04-30T00:19:41.711Z,0
2018-04-30T00:20:41.443Z,0
2018-04-30T00:21:41.692Z,0
2018-04-30T00:22:41.684Z,0
2018-04-30T00:23:41.434Z,0
2018-04-30T00:24:41.675Z,0
2018-04-30T00:25:41.423Z,0
2018-04-30T00:26:41.157Z,0
2018-04-30T00:27:41.658Z,0
2018-04-30T00:28:41.663Z,0
2018-04-30T00:29:41.663Z,0
2018-04-30T00:30:41.653Z,0
2018-04-30T00:31:41.636Z,0
2018-04-30T00:32:41.380Z,0
2018-04-30T00:33:41.810Z,0
2018-04-30T00:34:41.641Z,0
2018-04-30T00:35:41.366Z,0
2018-04-30T00:36:41.631Z,0
2018-04-30T00:37:41.616Z,0
2018-04-30T00:38:41.606Z,0
2018-04-30T00:39:41.616Z,0
2018-04-30T00:40:41.342Z,0
2018-04-30T00:41:41.595Z,0
2018-04-30T00:42:41.079Z,0
2018-04-30T00:43:41.088Z,0
2018-04-30T00:44:41.332Z,0
2018-04-30T00:45:41.576Z,0
2018-04-30T00:46:41.570Z,0
2018-04-30T00:47:41.569Z,0
2018-04-30T00:48:41.052Z,0
2018-04-30T00:49:41.555Z,0
2018-04-30T00:50:41.296Z,0
2018-04-30T00:51:41.552Z,0
2018-04-30T00:52:41.540Z,0
2018-04-30T00:53:41.302Z,0
2018-04-30T00:54:41.284Z,0
2018-04-30T00:55:41.272Z,0
2018-04-30T00:56:41.015Z,0
2018-04-30T00:57:40.761Z,0
2018-04-30T00:58:41.262Z,0
2018-04-30T00:59:41.268Z,0
2018-04-30T01:00:41.255Z,0
2018-04-30T01:01:41.249Z,0
2018-04-30T01:02:41.494Z,0
2018-04-30T01:03:41.342Z,0
2018-04-30T01:04:41.489Z,0
2018-04-30T01:05:41.485Z,0
2018-04-30T01:06:41.477Z,0
2018-04-30T01:07:41.227Z,0
2018-04-30T01:08:41.471Z,0
2018-04-30T01:09:41.463Z,0
2018-04-30T01:10:41.203Z,0
2018-04-30T01:11:41.461Z,0
2018-04-30T01:12:41.196Z,0
2018-04-30T01:13:41.195Z,0
2018-04-30T01:14:41.443Z,0
2018-04-30T01:15:41.443Z,0
2018-04-30T01:16:41.437Z,0
2018-04-30T01:17:41.173Z,0
2018-04-30T01:18:41.430Z,0
2018-04-30T01:19:41.166Z,0
2018-04-30T01:20:41.440Z,0
2018-04-30T01:21:41.417Z,0
2018-04-30T01:22:41.411Z,0
2018-04-30T01:23:41.404Z,0
2018-04-30T01:24:41.139Z,0
2018-04-30T01:25:41.134Z,0
2018-04-30T01:26:41.145Z,0
2018-04-30T01:27:41.121Z,0
2018-04-30T01:28:41.388Z,0
2018-04-30T01:29:41.365Z,0
2018-04-30T01:30:41.358Z,0
2018-04-30T01:31:41.374Z,0
2018-04-30T01:32:41.361Z,0
2018-04-30T01:33:41.351Z,0
2018-04-30T01:34:41.339Z,0
2018-04-30T01:35:41.345Z,0
2018-04-30T01:36:41.108Z,0
2018-04-30T01:37:41.086Z,0
2018-04-30T01:38:41.330Z,0
2018-04-30T01:39:41.322Z,0
2018-04-30T01:40:40.809Z,0
2018-04-30T01:41:41.322Z,0
2018-04-30T01:42:41.320Z,0
2018-04-30T01:43:41.302Z,0
2018-04-30T01:44:41.298Z,0
2018-04-30T01:45:41.290Z,0
2018-04-30T01:46:41.288Z,0
2018-04-30T01:47:41.284Z,0
2018-04-30T01:48:41.018Z,0
2018-04-30T01:49:41.279Z,0
2018-04-30T01:50:41.270Z,0
2018-04-30T01:51:41.008Z,0
2018-04-30T01:52:41.256Z,0
2018-04-30T01:53:41.248Z,0
2018-04-30T01:54:41.245Z,0
2018-04-30T01:55:41.317Z,0
2018-04-30T01:56:41.243Z,0
2018-04-30T01:57:40.973Z,0
2018-04-30T01:58:40.979Z,0
2018-04-30T01:59:41.222Z,0
2018-04-30T02:00:41.219Z,0
2018-04-30T02:01:41.219Z,0
2018-04-30T02:02:41.201Z,0
2018-04-30T02:03:40.955Z,0
2018-04-30T02:04:40.940Z,0
2018-04-30T02:05:40.934Z,0
2018-04-30T02:06:41.189Z,0
2018-04-30T02:07:40.932Z,0
2018-04-30T02:08:40.927Z,0
2018-04-30T02:09:41.168Z,0
2018-04-30T02:10:40.663Z,0
2018-04-30T02:11:41.171Z,0
2018-04-30T02:12:40.907Z,0
2018-04-30T02:13:40.901Z,0
2018-04-30T02:14:41.140Z,0
2018-04-30T02:15:40.887Z,0
2018-04-30T02:16:41.135Z,0
2018-04-30T02:17:40.879Z,0
2018-04-30T02:18:41.128Z,0
2018-04-30T02:19:40.865Z,0
2018-04-30T02:20:40.856Z,0
2018-04-30T02:21:41.114Z,0
2018-04-30T02:22:41.109Z,0
2018-04-30T02:23:41.097Z,0
2018-04-30T02:24:41.094Z,0
2018-04-30T02:25:41.101Z,0
2018-04-30T02:26:41.078Z,0
2018-04-30T02:27:41.076Z,0
2018-04-30T02:28:40.560Z,0
2018-04-30T02:29:41.071Z,0
2018-04-30T02:30:40.664Z,0
2018-04-30T02:31:41.056Z,0
2018-04-30T02:32:41.050Z,0
2018-04-30T02:33:41.336Z,0
2018-04-30T02:34:40.797Z,0
2018-04-30T02:35:41.033Z,0
2018-04-30T02:36:40.789Z,0
2018-04-30T02:37:41.037Z,0
2018-04-30T02:38:41.035Z,0
2018-04-30T02:39:40.826Z,0
2018-04-30T02:40:41.032Z,0
2018-04-30T02:41:40.754Z,0
2018-04-30T02:42:41.001Z,0
2018-04-30T02:43:40.506Z,0
2018-04-30T02:44:40.997Z,0
2018-04-30T02:45:41.004Z,0
2018-04-30T02:46:40.720Z,0
2018-04-30T02:47:40.725Z,0
2018-04-30T02:48:40.990Z,0
2018-04-30T02:49:40.710Z,0
2018-04-30T02:50:40.957Z,0
2018-04-30T02:51:40.720Z,0
2018-04-30T02:52:40.712Z,0
2018-04-30T02:53:40.686Z,0
2018-04-30T02:54:40.707Z,0
2018-04-30T02:55:40.681Z,0
2018-04-30T02:56:40.932Z,0
2018-04-30T02:57:40.663Z,0
2018-04-30T02:58:40.661Z,0
2018-04-30T02:59:40.671Z,0
2018-04-30T03:00:40.655Z,0
2018-04-30T03:01:40.894Z,0
2018-04-30T03:02:40.681Z,0
2018-04-30T03:03:40.901Z,0
2018-04-30T03:04:40.629Z,0
2018-04-30T03:05:40.978Z,0
2018-04-30T03:06:40.869Z,0
2018-04-30T03:07:40.623Z,0
2018-04-30T03:08:40.862Z,0
2018-04-30T03:09:40.775Z,0
2018-04-30T03:10:40.603Z,0
2018-04-30T03:11:40.867Z,0
2018-04-30T03:12:40.848Z,0
2018-04-30T03:13:40.832Z,0
2018-04-30T03:14:40.648Z,0
2018-04-30T03:15:40.573Z,0
2018-04-30T03:16:40.561Z,0
2018-04-30T03:17:40.568Z,0
2018-04-30T03:18:40.305Z,0
2018-04-30T03:19:40.551Z,0
2018-04-30T03:20:40.798Z,0
2018-04-30T03:21:40.534Z,0
2018-04-30T03:22:40.524Z,0
2018-04-30T03:23:40.523Z,0
2018-04-30T03:24:40.277Z,0
2018-04-30T03:25:40.257Z,0
2018-04-30T03:26:40.757Z,0
2018-04-30T03:27:40.755Z,5
2018-04-30T03:28:40.835Z,5
2018-04-30T03:29:40.749Z,5
2018-04-30T03:30:40.745Z,5
2018-04-30T03:31:40.745Z,5
2018-04-30T03:32:40.722Z,5
2018-04-30T03:33:40.720Z,5
2018-04-30T03:34:40.726Z,10
2018-04-30T03:35:40.470Z,10
2018-04-30T03:36:40.704Z,10
2018-04-30T03:37:40.700Z,10
2018-04-30T03:38:40.458Z,10
2018-04-30T03:39:40.441Z,15
2018-04-30T03:40:40.437Z,15
2018-04-30T03:41:40.694Z,15
2018-04-30T03:42:40.669Z,20
2018-04-30T03:43:40.677Z,20
2018-04-30T03:44:40.666Z,20
2018-04-30T03:45:40.654Z,25
2018-04-30T03:46:40.651Z,25
2018-04-30T03:47:40.642Z,25
2018-04-30T03:48:40.633Z,30
2018-04-30T03:49:40.778Z,30
2018-04-30T03:50:40.632Z,30
2018-04-30T03:51:40.617Z,35
2018-04-30T03:52:40.617Z,35
2018-04-30T03:53:40.617Z,35
2018-04-30T03:54:40.610Z,40
2018-04-30T03:55:40.603Z,40
2018-04-30T03:56:40.613Z,45
2018-04-30T03:57:40.589Z,45
2018-04-30T03:58:40.337Z,45
2018-04-30T03:59:40.578Z,45
2018-04-30T04:00:40.590Z,50
2018-04-30T04:01:40.588Z,50
2018-04-30T04:02:40.331Z,55
2018-04-30T04:03:40.560Z,55
2018-04-30T04:04:40.294Z,60
2018-04-30T04:05:40.288Z,65
2018-04-30T04:06:40.296Z,65
2018-04-30T04:07:40.292Z,70
2018-04-30T04:08:40.272Z,75
2018-04-30T04:09:40.013Z,75
2018-04-30T04:10:40.527Z,80
2018-04-30T04:11:40.513Z,80
2018-04-30T04:12:40.589Z,90
2018-04-30T04:13:40.248Z,90
2018-04-30T04:14:40.239Z,95
2018-04-30T04:15:40.523Z,100
2018-04-30T04:16:40.226Z,105
2018-04-30T04:17:40.222Z,110
2018-04-30T04:18:40.472Z,115
2018-04-30T04:19:40.472Z,115
2018-04-30T04:20:39.964Z,120
2018-04-30T04:21:40.461Z,125
2018-04-30T04:22:40.452Z,130
2018-04-30T04:23:40.203Z,135
2018-04-30T04:24:40.188Z,135
2018-04-30T04:25:40.187Z,140
2018-04-30T04:26:40.181Z,150
2018-04-30T04:27:40.172Z,155
2018-04-30T04:28:40.168Z,160
2018-04-30T04:29:40.165Z,160
2018-04-30T04:30:40.409Z,165
2018-04-30T04:31:39.906Z,175
2018-04-30T04:32:40.168Z,180
2018-04-30T04:33:40.214Z,185
2018-04-30T04:34:40.388Z,190
2018-04-30T04:35:39.891Z,195
2018-04-30T04:36:40.388Z,200
2018-04-30T04:37:39.875Z,210
2018-04-30T04:38:40.119Z,210
2018-04-30T04:39:39.863Z,215
2018-04-30T04:40:40.377Z,220
2018-04-30T04:41:40.230Z,225
2018-04-30T04:42:40.113Z,230
2018-04-30T04:43:40.358Z,240
2018-04-30T04:44:40.105Z,240
2018-04-30T04:45:40.095Z,245
2018-04-30T04:46:40.091Z,260
2018-04-30T04:47:40.200Z,260
2018-04-30T04:48:40.340Z,260
2018-04-30T04:49:40.333Z,270
2018-04-30T04:50:40.329Z,280
2018-04-30T04:51:40.339Z,285
2018-04-30T04:52:40.080Z,295
2018-04-30T04:53:40.073Z,305
2018-04-30T04:54:40.067Z,315
2018-04-30T04:55:40.072Z,320
2018-04-30T04:56:40.318Z,330
2018-04-30T04:57:40.069Z,345
2018-04-30T04:58:40.312Z,340
2018-04-30T04:59:40.317Z,345
2018-04-30T05:00:40.321Z,345
2018-04-30T05:01:40.051Z,355
2018-04-30T05:02:40.302Z,360
2018-04-30T05:03:40.305Z,370
2018-04-30T05:04:40.358Z,375
2018-04-30T05:05:40.298Z,375
2018-04-30T05:06:40.057Z,380
2018-04-30T05:07:40.298Z,385
2018-04-30T05:08:40.292Z,395
2018-04-30T05:09:40.038Z,405
2018-04-30T05:10:40.297Z,405
2018-04-30T05:11:40.069Z,415
2018-04-30T05:12:40.060Z,420
2018-04-30T05:13:40.295Z,430
2018-04-30T05:14:40.039Z,440
2018-04-30T05:15:39.795Z,440
2018-04-30T05:16:40.288Z,450
2018-04-30T05:17:40.039Z,460
2018-04-30T05:18:40.284Z,460
2018-04-30T05:19:40.301Z,470
2018-04-30T05:20:40.294Z,475
2018-04-30T05:21:40.289Z,480
2018-04-30T05:22:39.802Z,485
2018-04-30T05:23:40.300Z,490
2018-04-30T05:24:39.527Z,490
2018-04-30T05:25:40.297Z,495
2018-04-30T05:26:40.306Z,505
2018-04-30T05:27:40.288Z,520
2018-04-30T05:28:40.069Z,525
2018-04-30T05:29:40.049Z,540
2018-04-30T05:30:39.783Z,555
2018-04-30T05:31:39.790Z,555
2018-04-30T05:32:40.299Z,565
2018-04-30T05:33:39.792Z,570
2018-04-30T05:34:40.291Z,575
2018-04-30T05:35:40.041Z,575
2018-04-30T05:36:39.788Z,580
2018-04-30T05:37:40.296Z,590
2018-04-30T05:38:40.064Z,600
2018-04-30T05:39:40.058Z,610
2018-04-30T05:40:40.308Z,625
2018-04-30T05:41:40.305Z,650
2018-04-30T05:42:40.394Z,670
2018-04-30T05:43:40.058Z,675
2018-04-30T05:44:40.320Z,690
2018-04-30T05:45:40.334Z,700
2018-04-30T05:46:40.320Z,720
2018-04-30T05:47:40.329Z,725
2018-04-30T05:48:40.077Z,730
2018-04-30T05:49:40.075Z,740
2018-04-30T05:50:40.082Z,745
2018-04-30T05:51:39.597Z,750
2018-04-30T05:52:40.087Z,760
2018-04-30T05:53:39.846Z,770
2018-04-30T05:54:40.363Z,775
2018-04-30T05:55:40.358Z,785
2018-04-30T05:56:40.129Z,795
2018-04-30T05:57:40.113Z,810
2018-04-30T05:58:40.125Z,815
2018-04-30T05:59:40.115Z,820
2018-04-30T06:00:40.789Z,825
2018-04-30T06:01:40.209Z,840
2018-04-30T06:02:40.392Z,850
2018-04-30T06:03:40.397Z,860
2018-04-30T06:04:39.884Z,865
2018-04-30T06:05:39.638Z,880
2018-04-30T06:06:40.423Z,880
2018-04-30T06:07:40.407Z,885
2018-04-30T06:08:40.411Z,885
2018-04-30T06:09:40.446Z,895
2018-04-30T06:10:40.168Z,900
2018-04-30T06:11:40.181Z,910
2018-04-30T06:12:40.437Z,910
2018-04-30T06:13:40.020Z,915
2018-04-30T06:14:40.202Z,925
2018-04-30T06:15:40.201Z,950
2018-04-30T06:16:39.954Z,965
2018-04-30T06:17:40.614Z,990
2018-04-30T06:18:40.486Z,1000
2018-04-30T06:19:40.499Z,1015
2018-04-30T06:20:40.237Z,1020
2018-04-30T06:21:40.242Z,1030
2018-04-30T06:22:40.249Z,1050
2018-04-30T06:23:40.253Z,1050
2018-04-30T06:24:40.259Z,1060
2018-04-30T06:25:40.547Z,1065
2018-04-30T06:26:40.604Z,1070
2018-04-30T06:27:40.648Z,1080
2018-04-30T06:28:40.389Z,1085
2018-04-30T06:29:40.590Z,1110
2018-04-30T06:30:40.581Z,1120
2018-04-30T06:31:40.363Z,1140
2018-04-30T06:32:40.362Z,1140
2018-04-30T06:33:40.596Z,1150
2018-04-30T06:34:40.613Z,1155
2018-04-30T06:35:40.646Z,1155
2018-04-30T06:36:40.660Z,1145
2018-04-30T06:37:40.650Z,1145
2018-04-30T06:38:40.673Z,1135
2018-04-30T06:39:40.441Z,1150
2018-04-30T06:40:40.442Z,1155
2018-04-30T06:41:40.207Z,1195
2018-04-30T06:42:40.701Z,1210
2018-04-30T06:43:40.435Z,1220
2018-04-30T06:44:40.691Z,1235
2018-04-30T06:45:40.699Z,1185
2018-04-30T06:46:40.714Z,1225
2018-04-30T06:47:41.041Z,1245
2018-04-30T06:48:40.486Z,1280
2018-04-30T06:49:40.500Z,1330
2018-04-30T06:50:40.498Z,1350
2018-04-30T06:51:40.517Z,1345
2018-04-30T06:52:40.271Z,1350
2018-04-30T06:53:40.797Z,1340
2018-04-30T06:54:40.868Z,1365
2018-04-30T06:55:40.797Z,1410
2018-04-30T06:56:40.583Z,1430
2018-04-30T06:57:40.314Z,1410
2018-04-30T06:58:40.325Z,1405
2018-04-30T06:59:40.839Z,1365
2018-04-30T07:00:40.597Z,1310
2018-04-30T07:01:40.606Z,1305
2018-04-30T07:02:40.370Z,1355
2018-04-30T07:03:40.900Z,1365
2018-04-30T07:04:40.906Z,1390
2018-04-30T07:05:40.909Z,1320
2018-04-30T07:06:40.972Z,1365
2018-04-30T07:07:40.679Z,1350
2018-04-30T07:08:40.942Z,1385
2018-04-30T07:09:42.292Z,1405
2018-04-30T07:10:40.968Z,1400
2018-04-30T07:11:40.982Z,1405
2018-04-30T07:12:40.758Z,1370
2018-04-30T07:13:41.009Z,1355
2018-04-30T07:14:40.778Z,1355
2018-04-30T07:15:41.088Z,1410
2018-04-30T07:16:40.782Z,1385
2018-04-30T07:17:41.058Z,1365
2018-04-30T07:18:41.062Z,1385
2018-04-30T07:19:41.078Z,1415
2018-04-30T07:20:40.845Z,1355
2018-04-30T07:21:41.116Z,1320
2018-04-30T07:22:40.860Z,1255
2018-04-30T07:23:40.881Z,1340
2018-04-30T07:24:40.889Z,1375
2018-04-30T07:25:40.895Z,1420
2018-04-30T07:26:40.926Z,1470
2018-04-30T07:27:41.234Z,1460
2018-04-30T07:28:41.219Z,1455
2018-04-30T07:29:40.715Z,1385
2018-04-30T07:30:41.233Z,1475
2018-04-30T07:31:41.243Z,1535
2018-04-30T07:32:40.753Z,1595
2018-04-30T07:33:40.491Z,1635
2018-04-30T07:34:41.031Z,1695
2018-04-30T07:35:40.773Z,1715
2018-04-30T07:36:41.299Z,1700
2018-04-30T07:37:41.312Z,1690
2018-04-30T07:38:41.327Z,1670
2018-04-30T07:39:41.081Z,1615
2018-04-30T07:40:41.112Z,1595
2018-04-30T07:41:40.881Z,1600
2018-04-30T07:42:41.181Z,1745
2018-04-30T07:43:41.397Z,1820
2018-04-30T07:44:41.397Z,1845
2018-04-30T07:45:41.158Z,1980
2018-04-30T07:46:41.184Z,2000
2018-04-30T07:47:41.446Z,2025
2018-04-30T07:48:41.212Z,1975
2018-04-30T07:49:41.217Z,2040
2018-04-30T07:50:41.244Z,2050
2018-04-30T07:51:41.515Z,1985
2018-04-30T07:52:41.517Z,2010
2018-04-30T07:53:41.535Z,2035
2018-04-30T07:54:41.533Z,1995
2018-04-30T07:55:41.567Z,1805
2018-04-30T07:56:41.591Z,1885
2018-04-30T07:57:41.335Z,2055
2018-04-30T07:58:41.606Z,2130
2018-04-30T07:59:41.627Z,2100
2018-04-30T08:00:41.377Z,2070
2018-04-30T08:01:41.414Z,1955
2018-04-30T08:02:41.417Z,2050
2018-04-30T08:03:41.677Z,1920
2018-04-30T08:04:41.445Z,1865
2018-04-30T08:05:41.460Z,1920
2018-04-30T08:06:41.730Z,1810
2018-04-30T08:07:41.756Z,1675
2018-04-30T08:08:41.768Z,1650
2018-04-30T08:09:41.781Z,1615
2018-04-30T08:10:41.792Z,1605
2018-04-30T08:11:41.804Z,1665
2018-04-30T08:12:41.567Z,1630
2018-04-30T08:13:41.842Z,1620
2018-04-30T08:14:41.867Z,1580
2018-04-30T08:15:41.862Z,1675
2018-04-30T08:16:41.883Z,1655
2018-04-30T08:17:41.898Z,1675
2018-04-30T08:18:41.908Z,1655
2018-04-30T08:19:41.932Z,1685
2018-04-30T08:20:41.684Z,1790
2018-04-30T08:21:41.988Z,1785
2018-04-30T08:22:41.717Z,1790
2018-04-30T08:23:41.985Z,1735
2018-04-30T08:24:42.020Z,1820
2018-04-30T08:25:42.032Z,1770
2018-04-30T08:26:42.025Z,1760
2018-04-30T08:27:42.046Z,1760
2018-04-30T08:28:42.054Z,1745
2018-04-30T08:29:41.558Z,1700
2018-04-30T08:30:41.822Z,1625
2018-04-30T08:31:41.842Z,1545
2018-04-30T08:32:42.101Z,1460
2018-04-30T08:33:41.895Z,1195
2018-04-30T08:34:41.920Z,800
2018-04-30T08:35:41.659Z,535
2018-04-30T08:36:42.092Z,505
2018-04-30T08:37:41.923Z,495
2018-04-30T08:38:42.186Z,505
2018-04-30T08:39:41.955Z,500
2018-04-30T08:40:41.962Z,500
2018-04-30T08:41:42.210Z,490
2018-04-30T08:42:42.256Z,495
2018-04-30T08:43:42.717Z,500
2018-04-30T08:44:42.254Z,505
2018-04-30T08:45:42.021Z,505
2018-04-30T08:46:42.298Z,505
2018-04-30T08:47:42.027Z,510
2018-04-30T08:48:42.039Z,500
2018-04-30T08:49:42.307Z,495
2018-04-30T08:50:42.326Z,490
2018-04-30T08:51:42.354Z,480
2018-04-30T08:52:42.337Z,475
2018-04-30T08:53:42.109Z,460
2018-04-30T08:54:42.368Z,455
2018-04-30T08:55:42.130Z,445
2018-04-30T08:56:42.466Z,435
2018-04-30T08:57:42.380Z,435
2018-04-30T08:58:42.393Z,430
2018-04-30T08:59:42.157Z,420
2018-04-30T09:00:42.561Z,415
2018-04-30T09:01:42.421Z,410
2018-04-30T09:02:42.412Z,405
2018-04-30T09:03:42.424Z,400
2018-04-30T09:04:41.916Z,400
2018-04-30T09:05:41.689Z,400
2018-04-30T09:06:42.431Z,395
2018-04-30T09:07:42.438Z,395
2018-04-30T09:08:42.201Z,390
2018-04-30T09:09:42.734Z,390
2018-04-30T09:10:42.212Z,385
2018-04-30T09:11:42.213Z,385
2018-04-30T09:12:42.557Z,385
2018-04-30T09:13:41.987Z,380
2018-04-30T09:14:42.498Z,365
2018-04-30T09:15:42.495Z,340
2018-04-30T09:16:42.304Z,355
2018-04-30T09:17:41.995Z,370
2018-04-30T09:18:42.023Z,390
2018-04-30T09:19:42.505Z,420
2018-04-30T09:20:42.063Z,460
2018-04-30T09:21:42.532Z,510
2018-04-30T09:22:42.597Z,555
2018-04-30T09:23:42.289Z,580
2018-04-30T09:24:42.236Z,600
2018-04-30T09:25:42.291Z,605
2018-04-30T09:26:42.558Z,590
2018-04-30T09:27:42.553Z,550
2018-04-30T09:28:42.327Z,540
2018-04-30T09:29:42.321Z,525
2018-04-30T09:30:42.570Z,495
2018-04-30T09:31:42.577Z,465
2018-04-30T09:32:42.586Z,430
2018-04-30T09:33:42.589Z,405
2018-04-30T09:34:42.615Z,390
2018-04-30T09:35:42.598Z,390
2018-04-30T09:36:42.393Z,425
2018-04-30T09:37:42.352Z,445
2018-04-30T09:38:42.622Z,450
2018-04-30T09:39:42.622Z,455
2018-04-30T09:40:42.626Z,470
2018-04-30T09:41:42.640Z,490
2018-04-30T09:42:42.663Z,495
2018-04-30T09:43:42.381Z,480
2018-04-30T09:44:42.393Z,455
2018-04-30T09:45:42.653Z,445
2018-04-30T09:46:42.649Z,465
2018-04-30T09:47:42.659Z,450
2018-04-30T09:48:42.737Z,520
2018-04-30T09:49:42.405Z,575
2018-04-30T09:50:42.680Z,645
2018-04-30T09:51:42.419Z,640
2018-04-30T09:52:42.166Z,650
2018-04-30T09:53:42.444Z,690
2018-04-30T09:54:42.430Z,645
2018-04-30T09:55:42.695Z,660
2018-04-30T09:56:42.705Z,685
2018-04-30T09:57:42.725Z,690
2018-04-30T09:58:42.460Z,655
2018-04-30T09:59:42.505Z,685
2018-04-30T10:00:42.467Z,685
2018-04-30T10:01:42.468Z,560
2018-04-30T10:02:42.473Z,580
2018-04-30T10:03:42.757Z,615
2018-04-30T10:04:42.739Z,560
2018-04-30T10:05:42.501Z,490
2018-04-30T10:06:42.755Z,490
2018-04-30T10:07:42.748Z,525
2018-04-30T10:08:42.777Z,560
2018-04-30T10:09:42.790Z,630
2018-04-30T10:10:42.518Z,670
2018-04-30T10:11:42.788Z,685
2018-04-30T10:12:42.523Z,625
2018-04-30T10:13:42.785Z,580
2018-04-30T10:14:42.798Z,570
2018-04-30T10:15:42.796Z,545
2018-04-30T10:16:42.802Z,565
2018-04-30T10:17:42.608Z,630
2018-04-30T10:18:42.816Z,620
2018-04-30T10:19:42.816Z,615
2018-04-30T10:20:42.820Z,630
2018-04-30T10:21:42.320Z,660
2018-04-30T10:22:42.847Z,620
2018-04-30T10:23:43.452Z,610
2018-04-30T10:24:42.844Z,620
2018-04-30T10:25:42.869Z,635
2018-04-30T10:26:42.849Z,625
2018-04-30T10:27:42.621Z,655
2018-04-30T10:28:43.345Z,650
2018-04-30T10:29:42.356Z,665
2018-04-30T10:30:42.622Z,645
2018-04-30T10:31:43.209Z,625
2018-04-30T10:32:42.115Z,670
2018-04-30T10:33:42.916Z,745
2018-04-30T10:34:42.664Z,730
2018-04-30T10:35:42.886Z,620
2018-04-30T10:36:42.906Z,560
2018-04-30T10:37:43.000Z,500
2018-04-30T10:38:42.647Z,510
2018-04-30T10:39:42.654Z,495
2018-04-30T10:40:42.934Z,510
2018-04-30T10:41:42.658Z,495
2018-04-30T10:42:42.679Z,500
2018-04-30T10:43:42.674Z,515
2018-04-30T10:44:42.426Z,500
2018-04-30T10:45:42.961Z,480
2018-04-30T10:46:42.964Z,480
2018-04-30T10:47:42.932Z,490
2018-04-30T10:48:42.944Z,525
2018-04-30T10:49:42.696Z,505
2018-04-30T10:50:42.714Z,355
2018-04-30T10:51:42.942Z,275
2018-04-30T10:52:42.454Z,295
2018-04-30T10:53:42.716Z,415
2018-04-30T10:54:42.720Z,490
2018-04-30T10:55:42.969Z,600
2018-04-30T10:56:42.992Z,675
2018-04-30T10:57:42.476Z,660
2018-04-30T10:58:42.997Z,645
2018-04-30T10:59:42.763Z,675
2018-04-30T11:00:43.008Z,740
2018-04-30T11:01:42.982Z,795
2018-04-30T11:02:42.903Z,820
2018-04-30T11:03:43.027Z,840
2018-04-30T11:04:42.493Z,870
2018-04-30T11:05:42.784Z,875
2018-04-30T11:06:43.028Z,865
2018-04-30T11:07:43.005Z,835
2018-04-30T11:08:43.064Z,785
2018-04-30T11:09:43.011Z,710
2018-04-30T11:10:43.027Z,690
2018-04-30T11:11:43.033Z,670
2018-04-30T11:12:42.571Z,650
2018-04-30T11:13:43.062Z,630
2018-04-30T11:14:43.047Z,615
2018-04-30T11:15:43.028Z,610
2018-04-30T11:16:42.789Z,615
2018-04-30T11:17:43.048Z,640
2018-04-30T11:18:43.046Z,670
2018-04-30T11:19:43.050Z,710
2018-04-30T11:20:43.070Z,755
2018-04-30T11:21:42.820Z,765
2018-04-30T11:22:42.651Z,770
2018-04-30T11:23:43.068Z,775
2018-04-30T11:24:42.823Z,760
2018-04-30T11:25:42.827Z,755
2018-04-30T11:26:43.084Z,775
2018-04-30T11:27:43.197Z,780
2018-04-30T11:28:43.086Z,780
2018-04-30T11:29:42.840Z,790
2018-04-30T11:30:43.126Z,790
2018-04-30T11:31:43.163Z,800
2018-04-30T11:32:43.220Z,810
2018-04-30T11:33:43.160Z,820
2018-04-30T11:34:43.156Z,825
2018-04-30T11:35:43.203Z,805
2018-04-30T11:36:43.183Z,765
2018-04-30T11:37:43.164Z,735
2018-04-30T11:38:43.607Z,690
2018-04-30T11:39:43.698Z,655
2018-04-30T11:40:43.169Z,640
2018-04-30T11:41:43.182Z,655
2018-04-30T11:42:42.922Z,675
2018-04-30T11:43:42.957Z,685
2018-04-30T11:44:43.180Z,700
2018-04-30T11:45:43.212Z,690
2018-04-30T11:46:43.208Z,685
2018-04-30T11:47:44.116Z,680
2018-04-30T11:48:43.869Z,675
2018-04-30T11:49:43.209Z,675
2018-04-30T11:50:42.689Z,670
2018-04-30T11:51:42.970Z,685
2018-04-30T11:52:42.986Z,690
2018-04-30T11:53:43.239Z,690
2018-04-30T11:54:43.248Z,680
2018-04-30T11:55:42.991Z,650
2018-04-30T11:56:44.024Z,600
2018-04-30T11:57:43.810Z,545
2018-04-30T11:58:42.879Z,525
2018-04-30T11:59:43.317Z,540
2018-04-30T12:00:42.748Z,535
2018-04-30T12:01:43.572Z,520
2018-04-30T12:02:43.459Z,485
2018-04-30T12:03:43.293Z,450
2018-04-30T12:04:43.028Z,420
2018-04-30T12:05:43.893Z,395
2018-04-30T12:06:43.427Z,375
2018-04-30T12:07:42.827Z,355
2018-04-30T12:08:42.787Z,290
2018-04-30T12:09:43.042Z,265
2018-04-30T12:10:42.789Z,300
2018-04-30T12:11:43.318Z,315
2018-04-30T12:12:43.322Z,340
2018-04-30T12:13:43.072Z,340
2018-04-30T12:14:44.259Z,385
2018-04-30T12:15:44.062Z,480
2018-04-30T12:16:43.493Z,515
2018-04-30T12:17:43.348Z,500
2018-04-30T12:18:43.109Z,480
2018-04-30T12:19:43.075Z,435
2018-04-30T12:20:42.804Z,405
2018-04-30T12:21:43.330Z,400
2018-04-30T12:22:43.358Z,385
2018-04-30T12:23:43.987Z,365
2018-04-30T12:24:43.641Z,340
2018-04-30T12:25:43.324Z,335
2018-04-30T12:26:43.356Z,315
2018-04-30T12:27:43.369Z,300
2018-04-30T12:28:43.349Z,335
2018-04-30T12:29:43.429Z,365
2018-04-30T12:30:43.346Z,415
2018-04-30T12:31:43.360Z,460
2018-04-30T12:32:43.294Z,490
2018-04-30T12:33:44.499Z,470
2018-04-30T12:34:42.837Z,450
2018-04-30T12:35:43.374Z,450
2018-04-30T12:36:43.386Z,465
2018-04-30T12:37:43.376Z,490
2018-04-30T12:38:43.353Z,535
2018-04-30T12:39:43.171Z,600
2018-04-30T12:40:43.386Z,665
2018-04-30T12:41:44.412Z,680
2018-04-30T12:42:43.593Z,645
2018-04-30T12:43:47.687Z,615
2018-04-30T12:44:43.374Z,585
2018-04-30T12:45:42.881Z,555
2018-04-30T12:46:43.380Z,530
2018-04-30T12:47:43.400Z,535
2018-04-30T12:48:43.417Z,560
2018-04-30T12:49:43.878Z,615
2018-04-30T12:50:42.949Z,640
2018-04-30T12:51:43.230Z,645
2018-04-30T12:52:42.879Z,630
2018-04-30T12:53:43.139Z,605
2018-04-30T12:54:43.142Z,540
2018-04-30T12:55:43.394Z,495
2018-04-30T12:56:43.422Z,500
2018-04-30T12:57:43.410Z,555
2018-04-30T12:58:43.465Z,650
2018-04-30T12:59:44.549Z,665
2018-04-30T13:00:43.683Z,635
2018-04-30T13:01:43.456Z,570
2018-04-30T13:02:43.701Z,505
2018-04-30T13:03:43.436Z,450
2018-04-30T13:04:43.165Z,445
2018-04-30T13:05:43.456Z,450
2018-04-30T13:06:43.176Z,420
2018-04-30T13:07:44.550Z,360
2018-04-30T13:08:42.922Z,300
2018-04-30T13:09:43.439Z,255
2018-04-30T13:10:42.917Z,240
2018-04-30T13:11:43.186Z,240
2018-04-30T13:12:43.465Z,255
2018-04-30T13:13:43.465Z,270
2018-04-30T13:14:43.201Z,270
2018-04-30T13:15:43.056Z,260
2018-04-30T13:16:43.406Z,240
2018-04-30T13:17:43.193Z,230
2018-04-30T13:18:43.175Z,245
2018-04-30T13:19:43.187Z,270
2018-04-30T13:20:43.438Z,295
2018-04-30T13:21:43.179Z,315
2018-04-30T13:22:42.938Z,345
2018-04-30T13:23:42.932Z,375
2018-04-30T13:24:43.457Z,415
2018-04-30T13:25:43.442Z,510
2018-04-30T13:26:43.452Z,545
2018-04-30T13:27:43.189Z,520
2018-04-30T13:28:43.720Z,495
2018-04-30T13:29:43.450Z,435
2018-04-30T13:30:43.496Z,380
2018-04-30T13:31:43.215Z,315
2018-04-30T13:32:43.453Z,280
2018-04-30T13:33:43.455Z,265
2018-04-30T13:34:43.224Z,290
2018-04-30T13:35:43.248Z,300
2018-04-30T13:36:43.227Z,325
2018-04-30T13:37:43.477Z,425
2018-04-30T13:38:43.217Z,440
2018-04-30T13:39:43.493Z,455
2018-04-30T13:40:43.225Z,490
2018-04-30T13:41:43.472Z,510
2018-04-30T13:42:43.479Z,430
2018-04-30T13:43:43.871Z,335
2018-04-30T13:44:43.490Z,265
2018-04-30T13:45:43.493Z,240
2018-04-30T13:46:43.494Z,230
2018-04-30T13:47:43.488Z,230
2018-04-30T13:48:43.238Z,225
2018-04-30T13:49:43.515Z,230
2018-04-30T13:50:43.237Z,270
2018-04-30T13:51:43.320Z,325
2018-04-30T13:52:43.252Z,345
2018-04-30T13:53:43.016Z,355
2018-04-30T13:54:43.597Z,375
2018-04-30T13:55:43.240Z,340
2018-04-30T13:56:43.506Z,335
2018-04-30T13:57:43.499Z,345